sensor_id;sensor_type;location;lat;lon;timestamp;temperature;humidity
48768;DHT22;34933;40.968;14.538;2023-07-28T00:00:06;22.50;99.90
48768;DHT22;34933;40.968;14.538;2023-07-28T00:02:54;22.50;99.90
48768;DHT22;34933;40.968;14.538;2023-07-28T00:05:38;22.40;99.90
48768;DHT22;34933;40.968;14.538;2023-07-28T00:08:22;22.40;99.90
48768;DHT22;34933;40.968;14.538;2023-07-28T00:11:10;22.40;99.90
48768;DHT22;34933;40.968;14.538;2023-07-28T00:13:56;22.40;99.90
48768;DHT22;34933;40.968;14.538;2023-07-28T00:16:41;22.40;99.90
48768;DHT22;34933;40.968;14.538;2023-07-28T00:19:25;22.40;99.90
48768;DHT22;34933;40.968;14.538;2023-07-28T00:22:09;22.50;99.90
48768;DHT22;34933;40.968;14.538;2023-07-28T00:24:53;22.40;99.90
48768;DHT22;34933;40.968;14.538;2023-07-28T00:27:38;22.40;99.90
48768;DHT22;34933;40.968;14.538;2023-07-28T00:30:22;22.50;99.90
48768;DHT22;34933;40.968;14.538;2023-07-28T00:33:07;22.50;99.90
48768;DHT22;34933;40.968;14.538;2023-07-28T00:35:51;22.50;99.90
48768;DHT22;34933;40.968;14.538;2023-07-28T00:38:35;22.50;99.90
48768;DHT22;34933;40.968;14.538;2023-07-28T00:41:20;22.40;99.90
48768;DHT22;34933;40.968;14.538;2023-07-28T00:44:04;22.30;99.90
48768;DHT22;34933;40.968;14.538;2023-07-28T00:46:48;22.20;99.90
48768;DHT22;34933;40.968;14.538;2023-07-28T00:49:32;22.20;99.90
48768;DHT22;34933;40.968;14.538;2023-07-28T00:52:18;22.20;99.90
48768;DHT22;34933;40.968;14.538;2023-07-28T00:55:02;22.30;99.90
48768;DHT22;34933;40.968;14.538;2023-07-28T00:57:47;22.30;99.90
48768;DHT22;34933;40.968;14.538;2023-07-28T01:00:31;22.30;99.90
48768;DHT22;34933;40.968;14.538;2023-07-28T01:03:17;22.20;99.90
48768;DHT22;34933;40.968;14.538;2023-07-28T01:06:10;22.20;99.90
48768;DHT22;34933;40.968;14.538;2023-07-28T01:09:02;22.10;99.90
48768;DHT22;34933;40.968;14.538;2023-07-28T01:11:57;22.10;99.90
48768;DHT22;34933;40.968;14.538;2023-07-28T01:14:43;22.10;99.90
48768;DHT22;34933;40.968;14.538;2023-07-28T01:17:27;22.10;99.90
48768;DHT22;34933;40.968;14.538;2023-07-28T01:20:12;22.20;99.90
48768;DHT22;34933;40.968;14.538;2023-07-28T01:23:13;22.20;99.90
48768;DHT22;34933;40.968;14.538;2023-07-28T01:26:09;22.10;99.90
48768;DHT22;34933;40.968;14.538;2023-07-28T01:28:53;22.00;99.90
48768;DHT22;34933;40.968;14.538;2023-07-28T01:31:39;22.00;99.90
48768;DHT22;34933;40.968;14.538;2023-07-28T01:34:23;22.00;99.90
48768;DHT22;34933;40.968;14.538;2023-07-28T01:37:07;21.90;99.90
48768;DHT22;34933;40.968;14.538;2023-07-28T01:39:52;21.90;99.90
48768;DHT22;34933;40.968;14.538;2023-07-28T01:42:36;21.90;99.90
48768;DHT22;34933;40.968;14.538;2023-07-28T01:45:20;21.90;99.90
48768;DHT22;34933;40.968;14.538;2023-07-28T01:48:05;21.80;99.90
48768;DHT22;34933;40.968;14.538;2023-07-28T01:50:50;21.80;99.90
48768;DHT22;34933;40.968;14.538;2023-07-28T01:53:34;21.80;99.90
48768;DHT22;34933;40.968;14.538;2023-07-28T01:56:18;21.80;99.90
48768;DHT22;34933;40.968;14.538;2023-07-28T01:59:02;21.90;99.90
48768;DHT22;34933;40.968;14.538;2023-07-28T02:01:47;21.80;99.90
48768;DHT22;34933;40.968;14.538;2023-07-28T02:04:31;21.90;99.90
48768;DHT22;34933;40.968;14.538;2023-07-28T02:07:15;21.70;99.90
48768;DHT22;34933;40.968;14.538;2023-07-28T02:10:00;21.80;99.90
48768;DHT22;34933;40.968;14.538;2023-07-28T02:12:44;21.80;99.90
48768;DHT22;34933;40.968;14.538;2023-07-28T02:15:28;21.70;99.90
48768;DHT22;34933;40.968;14.538;2023-07-28T02:18:12;21.60;99.90
48768;DHT22;34933;40.968;14.538;2023-07-28T02:20:57;21.70;99.90
48768;DHT22;34933;40.968;14.538;2023-07-28T02:23:41;21.60;99.90
48768;DHT22;34933;40.968;14.538;2023-07-28T02:26:25;21.60;99.90
48768;DHT22;34933;40.968;14.538;2023-07-28T02:29:09;21.60;99.90
48768;DHT22;34933;40.968;14.538;2023-07-28T02:31:54;21.60;99.90
48768;DHT22;34933;40.968;14.538;2023-07-28T02:34:38;21.60;99.90
48768;DHT22;34933;40.968;14.538;2023-07-28T02:37:22;21.70;99.90
48768;DHT22;34933;40.968;14.538;2023-07-28T02:40:07;21.70;99.90
48768;DHT22;34933;40.968;14.538;2023-07-28T02:42:52;21.70;99.90
48768;DHT22;34933;40.968;14.538;2023-07-28T02:45:37;21.70;99.90
48768;DHT22;34933;40.968;14.538;2023-07-28T02:48:21;21.70;99.90
48768;DHT22;34933;40.968;14.538;2023-07-28T02:51:06;21.60;99.90
48768;DHT22;34933;40.968;14.538;2023-07-28T02:53:51;21.60;99.90
48768;DHT22;34933;40.968;14.538;2023-07-28T02:56:35;21.50;99.90
48768;DHT22;34933;40.968;14.538;2023-07-28T02:59:24;21.40;99.90
48768;DHT22;34933;40.968;14.538;2023-07-28T03:02:08;21.50;99.90
48768;DHT22;34933;40.968;14.538;2023-07-28T03:04:53;21.50;99.90
48768;DHT22;34933;40.968;14.538;2023-07-28T03:07:40;21.50;99.90
48768;DHT22;34933;40.968;14.538;2023-07-28T03:10:27;21.50;99.90
48768;DHT22;34933;40.968;14.538;2023-07-28T03:13:11;21.30;99.90
48768;DHT22;34933;40.968;14.538;2023-07-28T03:15:55;21.30;99.90
48768;DHT22;34933;40.968;14.538;2023-07-28T03:18:41;21.30;99.90
48768;DHT22;34933;40.968;14.538;2023-07-28T03:21:25;21.20;99.90
48768;DHT22;34933;40.968;14.538;2023-07-28T03:24:10;21.10;99.90
48768;DHT22;34933;40.968;14.538;2023-07-28T03:26:54;21.00;99.90
48768;DHT22;34933;40.968;14.538;2023-07-28T03:29:39;21.10;99.90
48768;DHT22;34933;40.968;14.538;2023-07-28T03:32:23;21.10;99.90
48768;DHT22;34933;40.968;14.538;2023-07-28T03:35:08;21.00;99.90
48768;DHT22;34933;40.968;14.538;2023-07-28T03:37:57;21.00;99.90
48768;DHT22;34933;40.968;14.538;2023-07-28T03:40:42;21.00;99.90
48768;DHT22;34933;40.968;14.538;2023-07-28T03:43:28;20.90;99.90
48768;DHT22;34933;40.968;14.538;2023-07-28T03:46:12;20.80;99.90
48768;DHT22;34933;40.968;14.538;2023-07-28T03:48:57;20.90;99.90
48768;DHT22;34933;40.968;14.538;2023-07-28T03:51:42;20.90;99.90
48768;DHT22;34933;40.968;14.538;2023-07-28T03:54:27;20.80;99.90
48768;DHT22;34933;40.968;14.538;2023-07-28T03:57:11;20.90;99.90
48768;DHT22;34933;40.968;14.538;2023-07-28T03:59:56;20.90;99.90
48768;DHT22;34933;40.968;14.538;2023-07-28T04:02:40;21.00;99.90
48768;DHT22;34933;40.968;14.538;2023-07-28T04:05:25;21.00;99.90
48768;DHT22;34933;40.968;14.538;2023-07-28T04:08:09;21.00;99.90
48768;DHT22;34933;40.968;14.538;2023-07-28T04:10:53;21.00;99.90
48768;DHT22;34933;40.968;14.538;2023-07-28T04:13:38;21.00;99.90
48768;DHT22;34933;40.968;14.538;2023-07-28T04:16:22;21.10;99.90
48768;DHT22;34933;40.968;14.538;2023-07-28T04:19:06;21.10;99.90
48768;DHT22;34933;40.968;14.538;2023-07-28T04:21:50;21.20;99.90
48768;DHT22;34933;40.968;14.538;2023-07-28T04:24:36;21.30;99.90
48768;DHT22;34933;40.968;14.538;2023-07-28T04:27:21;21.30;99.90
48768;DHT22;34933;40.968;14.538;2023-07-28T04:30:06;21.40;99.90
48768;DHT22;34933;40.968;14.538;2023-07-28T04:32:51;21.30;99.90
48768;DHT22;34933;40.968;14.538;2023-07-28T04:35:38;21.40;99.90
48768;DHT22;34933;40.968;14.538;2023-07-28T04:38:31;21.40;99.90
48768;DHT22;34933;40.968;14.538;2023-07-28T04:41:16;21.40;99.90
48768;DHT22;34933;40.968;14.538;2023-07-28T04:44:07;21.50;99.90
48768;DHT22;34933;40.968;14.538;2023-07-28T04:46:56;21.60;99.90
48768;DHT22;34933;40.968;14.538;2023-07-28T04:49:41;21.60;99.90
48768;DHT22;34933;40.968;14.538;2023-07-28T04:52:25;21.70;99.90
48768;DHT22;34933;40.968;14.538;2023-07-28T04:55:10;21.80;99.90
48768;DHT22;34933;40.968;14.538;2023-07-28T04:57:55;21.90;99.90
48768;DHT22;34933;40.968;14.538;2023-07-28T05:00:40;22.00;99.90
48768;DHT22;34933;40.968;14.538;2023-07-28T05:03:25;22.10;99.90
48768;DHT22;34933;40.968;14.538;2023-07-28T05:06:16;22.20;99.90
48768;DHT22;34933;40.968;14.538;2023-07-28T05:09:01;22.20;99.90
48768;DHT22;34933;40.968;14.538;2023-07-28T05:11:53;22.30;99.90
48768;DHT22;34933;40.968;14.538;2023-07-28T05:14:37;22.40;99.90
48768;DHT22;34933;40.968;14.538;2023-07-28T05:17:22;22.50;99.90
48768;DHT22;34933;40.968;14.538;2023-07-28T05:20:29;22.60;99.90
48768;DHT22;34933;40.968;14.538;2023-07-28T05:23:23;22.70;99.90
48768;DHT22;34933;40.968;14.538;2023-07-28T05:26:07;22.80;99.90
48768;DHT22;34933;40.968;14.538;2023-07-28T05:28:51;22.90;99.90
48768;DHT22;34933;40.968;14.538;2023-07-28T05:31:36;23.00;99.90
48768;DHT22;34933;40.968;14.538;2023-07-28T05:34:23;23.20;99.90
48768;DHT22;34933;40.968;14.538;2023-07-28T05:37:07;23.30;99.90
48768;DHT22;34933;40.968;14.538;2023-07-28T05:39:52;23.50;99.90
48768;DHT22;34933;40.968;14.538;2023-07-28T05:42:38;23.60;99.90
48768;DHT22;34933;40.968;14.538;2023-07-28T05:45:22;23.70;99.90
48768;DHT22;34933;40.968;14.538;2023-07-28T05:48:07;23.80;99.90
48768;DHT22;34933;40.968;14.538;2023-07-28T05:50:54;23.90;99.90
48768;DHT22;34933;40.968;14.538;2023-07-28T05:53:39;24.00;99.90
48768;DHT22;34933;40.968;14.538;2023-07-28T05:56:24;24.10;99.90
48768;DHT22;34933;40.968;14.538;2023-07-28T05:59:09;24.20;99.90
48768;DHT22;34933;40.968;14.538;2023-07-28T06:01:53;24.40;99.90
48768;DHT22;34933;40.968;14.538;2023-07-28T06:04:54;24.50;99.90
48768;DHT22;34933;40.968;14.538;2023-07-28T06:07:38;24.60;99.90
48768;DHT22;34933;40.968;14.538;2023-07-28T06:10:22;24.70;99.90
48768;DHT22;34933;40.968;14.538;2023-07-28T06:13:06;24.90;99.90
48768;DHT22;34933;40.968;14.538;2023-07-28T06:15:53;25.00;99.90
48768;DHT22;34933;40.968;14.538;2023-07-28T06:18:38;25.10;99.90
48768;DHT22;34933;40.968;14.538;2023-07-28T06:21:31;25.10;99.90
48768;DHT22;34933;40.968;14.538;2023-07-28T06:24:15;25.30;99.90
48768;DHT22;34933;40.968;14.538;2023-07-28T06:26:59;25.40;99.90
48768;DHT22;34933;40.968;14.538;2023-07-28T06:29:44;25.50;99.90
48768;DHT22;34933;40.968;14.538;2023-07-28T06:32:29;25.60;99.90
48768;DHT22;34933;40.968;14.538;2023-07-28T06:35:13;25.70;99.90
48768;DHT22;34933;40.968;14.538;2023-07-28T06:37:57;25.80;99.90
48768;DHT22;34933;40.968;14.538;2023-07-28T06:40:41;25.90;99.90
48768;DHT22;34933;40.968;14.538;2023-07-28T06:43:25;26.00;99.90
48768;DHT22;34933;40.968;14.538;2023-07-28T06:46:11;26.20;99.90
48768;DHT22;34933;40.968;14.538;2023-07-28T06:48:56;26.20;99.90
48768;DHT22;34933;40.968;14.538;2023-07-28T06:51:41;26.20;99.90
48768;DHT22;34933;40.968;14.538;2023-07-28T06:54:25;26.30;99.90
48768;DHT22;34933;40.968;14.538;2023-07-28T06:57:10;26.40;99.90
48768;DHT22;34933;40.968;14.538;2023-07-28T06:59:56;26.50;99.90
48768;DHT22;34933;40.968;14.538;2023-07-28T07:02:40;26.60;99.90
48768;DHT22;34933;40.968;14.538;2023-07-28T07:05:25;26.70;99.90
48768;DHT22;34933;40.968;14.538;2023-07-28T07:08:09;26.80;99.90
48768;DHT22;34933;40.968;14.538;2023-07-28T07:10:53;26.70;99.90
48768;DHT22;34933;40.968;14.538;2023-07-28T07:13:38;26.80;99.90
48768;DHT22;34933;40.968;14.538;2023-07-28T07:16:23;26.80;99.90
48768;DHT22;34933;40.968;14.538;2023-07-28T07:19:07;26.90;99.90
48768;DHT22;34933;40.968;14.538;2023-07-28T07:21:53;27.00;99.90
48768;DHT22;34933;40.968;14.538;2023-07-28T07:24:37;27.10;99.90
48768;DHT22;34933;40.968;14.538;2023-07-28T07:27:21;27.10;99.90
48768;DHT22;34933;40.968;14.538;2023-07-28T07:30:07;27.10;99.90
48768;DHT22;34933;40.968;14.538;2023-07-28T07:32:52;27.10;99.90
48768;DHT22;34933;40.968;14.538;2023-07-28T07:35:37;27.10;99.90
48768;DHT22;34933;40.968;14.538;2023-07-28T07:38:22;27.20;99.90
48768;DHT22;34933;40.968;14.538;2023-07-28T07:41:06;27.30;99.90
48768;DHT22;34933;40.968;14.538;2023-07-28T07:43:54;27.30;99.90
48768;DHT22;34933;40.968;14.538;2023-07-28T07:46:39;27.30;99.90
48768;DHT22;34933;40.968;14.538;2023-07-28T07:49:23;27.60;99.90
48768;DHT22;34933;40.968;14.538;2023-07-28T07:52:08;27.50;99.90
48768;DHT22;34933;40.968;14.538;2023-07-28T07:54:55;27.60;99.90
48768;DHT22;34933;40.968;14.538;2023-07-28T07:57:40;27.90;99.90
48768;DHT22;34933;40.968;14.538;2023-07-28T08:00:25;28.00;99.90
48768;DHT22;34933;40.968;14.538;2023-07-28T08:03:09;27.70;99.90
48768;DHT22;34933;40.968;14.538;2023-07-28T08:05:54;27.70;99.90
48768;DHT22;34933;40.968;14.538;2023-07-28T08:08:38;27.90;99.90
48768;DHT22;34933;40.968;14.538;2023-07-28T08:11:22;28.20;99.90
48768;DHT22;34933;40.968;14.538;2023-07-28T08:14:07;28.20;99.90
48768;DHT22;34933;40.968;14.538;2023-07-28T08:16:51;28.30;99.90
48768;DHT22;34933;40.968;14.538;2023-07-28T08:19:36;28.20;99.70
48768;DHT22;34933;40.968;14.538;2023-07-28T08:22:20;28.20;99.80
48768;DHT22;34933;40.968;14.538;2023-07-28T08:25:04;28.20;99.30
48768;DHT22;34933;40.968;14.538;2023-07-28T08:27:49;28.40;99.40
48768;DHT22;34933;40.968;14.538;2023-07-28T08:30:34;28.60;99.20
48768;DHT22;34933;40.968;14.538;2023-07-28T08:33:18;28.70;98.60
48768;DHT22;34933;40.968;14.538;2023-07-28T08:36:02;28.90;98.40
48768;DHT22;34933;40.968;14.538;2023-07-28T08:38:47;29.10;97.50
48768;DHT22;34933;40.968;14.538;2023-07-28T08:41:33;29.00;97.50
48768;DHT22;34933;40.968;14.538;2023-07-28T08:44:17;29.10;96.90
48768;DHT22;34933;40.968;14.538;2023-07-28T08:47:03;29.30;96.90
48768;DHT22;34933;40.968;14.538;2023-07-28T08:49:48;29.50;96.00
48768;DHT22;34933;40.968;14.538;2023-07-28T08:52:32;29.60;95.70
48768;DHT22;34933;40.968;14.538;2023-07-28T08:55:17;29.70;95.60
48768;DHT22;34933;40.968;14.538;2023-07-28T08:58:17;29.80;95.70
48768;DHT22;34933;40.968;14.538;2023-07-28T09:01:03;30.10;95.30
48768;DHT22;34933;40.968;14.538;2023-07-28T09:03:49;30.00;95.40
48768;DHT22;34933;40.968;14.538;2023-07-28T09:06:34;30.00;94.60
48768;DHT22;34933;40.968;14.538;2023-07-28T09:09:20;29.90;94.50
48768;DHT22;34933;40.968;14.538;2023-07-28T09:12:06;29.90;93.10
48768;DHT22;34933;40.968;14.538;2023-07-28T09:14:55;29.90;93.80
48768;DHT22;34933;40.968;14.538;2023-07-28T09:17:44;29.90;93.30
48768;DHT22;34933;40.968;14.538;2023-07-28T09:20:35;29.80;93.60
48768;DHT22;34933;40.968;14.538;2023-07-28T09:23:26;29.90;93.90
48768;DHT22;34933;40.968;14.538;2023-07-28T09:26:11;30.10;93.40
48768;DHT22;34933;40.968;14.538;2023-07-28T09:28:56;29.90;93.70
48768;DHT22;34933;40.968;14.538;2023-07-28T09:31:40;29.80;92.70
48768;DHT22;34933;40.968;14.538;2023-07-28T09:34:26;29.80;93.10
48768;DHT22;34933;40.968;14.538;2023-07-28T09:37:10;30.00;92.00
48768;DHT22;34933;40.968;14.538;2023-07-28T09:39:55;30.20;91.20
48768;DHT22;34933;40.968;14.538;2023-07-28T09:42:43;30.40;90.20
48768;DHT22;34933;40.968;14.538;2023-07-28T09:45:28;30.60;90.40
48768;DHT22;34933;40.968;14.538;2023-07-28T09:48:14;30.80;89.00
48768;DHT22;34933;40.968;14.538;2023-07-28T09:51:02;30.70;87.30
48768;DHT22;34933;40.968;14.538;2023-07-28T09:53:53;30.70;88.10
48768;DHT22;34933;40.968;14.538;2023-07-28T09:56:39;30.80;86.40
48768;DHT22;34933;40.968;14.538;2023-07-28T09:59:35;30.90;85.20
48768;DHT22;34933;40.968;14.538;2023-07-28T10:02:20;31.10;85.80
48768;DHT22;34933;40.968;14.538;2023-07-28T10:05:05;31.20;86.40
48768;DHT22;34933;40.968;14.538;2023-07-28T10:07:51;31.40;87.70
48768;DHT22;34933;40.968;14.538;2023-07-28T10:10:36;31.20;86.40
48768;DHT22;34933;40.968;14.538;2023-07-28T10:13:21;31.10;88.80
48768;DHT22;34933;40.968;14.538;2023-07-28T10:16:06;31.20;89.20
48768;DHT22;34933;40.968;14.538;2023-07-28T10:18:55;31.50;89.40
48768;DHT22;34933;40.968;14.538;2023-07-28T10:21:39;31.50;88.80
48768;DHT22;34933;40.968;14.538;2023-07-28T10:27:45;31.70;84.20
48768;DHT22;34933;40.968;14.538;2023-07-28T10:30:34;31.80;86.10
48768;DHT22;34933;40.968;14.538;2023-07-28T10:33:30;32.10;86.90
48768;DHT22;34933;40.968;14.538;2023-07-28T10:39:16;32.20;86.70
48768;DHT22;34933;40.968;14.538;2023-07-28T10:42:09;32.40;88.00
48768;DHT22;34933;40.968;14.538;2023-07-28T10:44:54;32.50;89.00
48768;DHT22;34933;40.968;14.538;2023-07-28T10:47:39;32.70;88.30
48768;DHT22;34933;40.968;14.538;2023-07-28T10:50:23;32.90;82.50
48768;DHT22;34933;40.968;14.538;2023-07-28T10:53:09;33.10;82.80
48768;DHT22;34933;40.968;14.538;2023-07-28T10:55:55;33.10;86.50
48768;DHT22;34933;40.968;14.538;2023-07-28T10:58:39;32.80;88.10
48768;DHT22;34933;40.968;14.538;2023-07-28T11:01:31;32.80;87.60
48768;DHT22;34933;40.968;14.538;2023-07-28T11:04:17;33.00;87.90
48768;DHT22;34933;40.968;14.538;2023-07-28T11:07:02;32.80;88.40
48768;DHT22;34933;40.968;14.538;2023-07-28T11:09:46;32.80;88.80
48768;DHT22;34933;40.968;14.538;2023-07-28T11:12:30;32.80;89.30
48768;DHT22;34933;40.968;14.538;2023-07-28T11:15:16;33.20;89.00
48768;DHT22;34933;40.968;14.538;2023-07-28T11:18:02;33.00;89.80
48768;DHT22;34933;40.968;14.538;2023-07-28T11:20:47;32.90;90.20
48768;DHT22;34933;40.968;14.538;2023-07-28T11:23:32;32.90;90.30
48768;DHT22;34933;40.968;14.538;2023-07-28T11:26:17;33.20;90.20
48768;DHT22;34933;40.968;14.538;2023-07-28T11:29:01;33.20;90.40
48768;DHT22;34933;40.968;14.538;2023-07-28T11:31:46;33.00;90.30
48768;DHT22;34933;40.968;14.538;2023-07-28T11:34:38;33.00;90.90
48768;DHT22;34933;40.968;14.538;2023-07-28T11:37:22;32.80;91.20
48768;DHT22;34933;40.968;14.538;2023-07-28T11:40:07;32.90;91.80
48768;DHT22;34933;40.968;14.538;2023-07-28T11:42:55;33.40;91.40
48768;DHT22;34933;40.968;14.538;2023-07-28T11:45:39;33.20;91.10
48768;DHT22;34933;40.968;14.538;2023-07-28T11:48:23;32.60;91.50
48768;DHT22;34933;40.968;14.538;2023-07-28T11:51:13;32.40;91.60
48768;DHT22;34933;40.968;14.538;2023-07-28T11:53:58;32.30;92.20
48768;DHT22;34933;40.968;14.538;2023-07-28T11:56:43;32.50;92.40
48768;DHT22;34933;40.968;14.538;2023-07-28T11:59:27;32.30;92.10
48768;DHT22;34933;40.968;14.538;2023-07-28T12:02:12;32.10;92.90
48768;DHT22;34933;40.968;14.538;2023-07-28T12:04:57;31.70;93.00
48768;DHT22;34933;40.968;14.538;2023-07-28T12:07:47;31.30;93.30
48768;DHT22;34933;40.968;14.538;2023-07-28T12:10:32;30.80;94.30
48768;DHT22;34933;40.968;14.538;2023-07-28T12:13:17;30.50;93.80
48768;DHT22;34933;40.968;14.538;2023-07-28T12:16:06;30.40;94.60
48768;DHT22;34933;40.968;14.538;2023-07-28T12:18:50;30.00;95.80
48768;DHT22;34933;40.968;14.538;2023-07-28T12:21:42;29.70;95.40
48768;DHT22;34933;40.968;14.538;2023-07-28T12:24:26;29.60;95.30
48768;DHT22;34933;40.968;14.538;2023-07-28T12:27:10;29.70;95.00
48768;DHT22;34933;40.968;14.538;2023-07-28T12:29:57;29.60;97.00
48768;DHT22;34933;40.968;14.538;2023-07-28T12:32:41;28.30;99.90
48768;DHT22;34933;40.968;14.538;2023-07-28T12:35:26;26.60;99.90
48768;DHT22;34933;40.968;14.538;2023-07-28T12:38:14;25.60;99.90
48768;DHT22;34933;40.968;14.538;2023-07-28T12:40:59;24.90;99.90
48768;DHT22;34933;40.968;14.538;2023-07-28T12:43:43;24.50;99.90
48768;DHT22;34933;40.968;14.538;2023-07-28T12:46:27;24.40;99.90
48768;DHT22;34933;40.968;14.538;2023-07-28T12:49:12;24.30;99.90
48768;DHT22;34933;40.968;14.538;2023-07-28T12:51:58;24.30;99.90
48768;DHT22;34933;40.968;14.538;2023-07-28T12:54:42;24.50;99.90
48768;DHT22;34933;40.968;14.538;2023-07-28T12:57:27;24.60;99.90
48768;DHT22;34933;40.968;14.538;2023-07-28T13:00:11;24.60;99.90
48768;DHT22;34933;40.968;14.538;2023-07-28T13:03:00;24.80;99.90
48768;DHT22;34933;40.968;14.538;2023-07-28T13:05:44;25.00;99.90
48768;DHT22;34933;40.968;14.538;2023-07-28T13:08:31;25.10;99.90
48768;DHT22;34933;40.968;14.538;2023-07-28T13:11:15;25.20;99.90
48768;DHT22;34933;40.968;14.538;2023-07-28T13:14:00;25.30;99.90
48768;DHT22;34933;40.968;14.538;2023-07-28T13:16:46;25.60;99.90
48768;DHT22;34933;40.968;14.538;2023-07-28T13:19:31;26.10;99.90
48768;DHT22;34933;40.968;14.538;2023-07-28T13:22:15;26.40;99.90
48768;DHT22;34933;40.968;14.538;2023-07-28T13:25:00;27.10;99.90
48768;DHT22;34933;40.968;14.538;2023-07-28T13:27:45;27.70;99.90
48768;DHT22;34933;40.968;14.538;2023-07-28T13:30:29;28.80;99.90
48768;DHT22;34933;40.968;14.538;2023-07-28T13:33:14;29.90;99.90
48768;DHT22;34933;40.968;14.538;2023-07-28T13:35:58;31.10;99.90
48768;DHT22;34933;40.968;14.538;2023-07-28T13:38:44;32.00;99.90
48768;DHT22;34933;40.968;14.538;2023-07-28T13:41:29;33.70;99.90
48768;DHT22;34933;40.968;14.538;2023-07-28T13:44:14;35.10;99.90
48768;DHT22;34933;40.968;14.538;2023-07-28T13:46:58;36.10;99.70
48768;DHT22;34933;40.968;14.538;2023-07-28T13:49:43;36.10;96.90
48768;DHT22;34933;40.968;14.538;2023-07-28T13:52:28;36.30;96.10
48768;DHT22;34933;40.968;14.538;2023-07-28T13:55:12;37.80;93.60
48768;DHT22;34933;40.968;14.538;2023-07-28T13:57:58;38.70;92.70
48768;DHT22;34933;40.968;14.538;2023-07-28T14:00:43;39.50;92.30
48768;DHT22;34933;40.968;14.538;2023-07-28T14:03:27;40.30;91.40
48768;DHT22;34933;40.968;14.538;2023-07-28T14:06:12;41.10;90.40
48768;DHT22;34933;40.968;14.538;2023-07-28T14:08:56;42.10;88.90
48768;DHT22;34933;40.968;14.538;2023-07-28T14:11:40;42.60;86.40
48768;DHT22;34933;40.968;14.538;2023-07-28T14:14:25;42.80;86.20
48768;DHT22;34933;40.968;14.538;2023-07-28T14:17:09;43.30;85.70
48768;DHT22;34933;40.968;14.538;2023-07-28T14:19:53;43.50;84.50
48768;DHT22;34933;40.968;14.538;2023-07-28T14:22:38;43.40;80.80
48768;DHT22;34933;40.968;14.538;2023-07-28T14:25:22;41.60;82.50
48768;DHT22;34933;40.968;14.538;2023-07-28T14:28:06;41.30;82.90
48768;DHT22;34933;40.968;14.538;2023-07-28T14:30:51;42.40;83.80
48768;DHT22;34933;40.968;14.538;2023-07-28T14:33:36;42.90;82.30
48768;DHT22;34933;40.968;14.538;2023-07-28T14:36:20;42.60;78.80
48768;DHT22;34933;40.968;14.538;2023-07-28T14:39:05;42.20;78.60
48768;DHT22;34933;40.968;14.538;2023-07-28T14:41:50;42.40;79.10
48768;DHT22;34933;40.968;14.538;2023-07-28T14:44:35;41.90;77.40
48768;DHT22;34933;40.968;14.538;2023-07-28T14:47:20;42.00;76.50
48768;DHT22;34933;40.968;14.538;2023-07-28T14:50:05;42.00;76.40
48768;DHT22;34933;40.968;14.538;2023-07-28T14:52:49;42.60;73.40
48768;DHT22;34933;40.968;14.538;2023-07-28T14:55:33;41.90;73.70
48768;DHT22;34933;40.968;14.538;2023-07-28T14:58:18;41.20;74.50
48768;DHT22;34933;40.968;14.538;2023-07-28T15:01:02;40.90;76.60
48768;DHT22;34933;40.968;14.538;2023-07-28T15:03:49;41.10;77.70
48768;DHT22;34933;40.968;14.538;2023-07-28T15:06:33;41.40;75.90
48768;DHT22;34933;40.968;14.538;2023-07-28T15:09:17;41.70;74.20
48768;DHT22;34933;40.968;14.538;2023-07-28T15:12:07;41.30;75.90
48768;DHT22;34933;40.968;14.538;2023-07-28T15:14:51;41.40;75.00
48768;DHT22;34933;40.968;14.538;2023-07-28T15:17:36;42.00;73.50
48768;DHT22;34933;40.968;14.538;2023-07-28T15:20:20;42.60;75.00
48768;DHT22;34933;40.968;14.538;2023-07-28T15:23:05;41.90;72.70
48768;DHT22;34933;40.968;14.538;2023-07-28T15:25:50;40.30;75.50
48768;DHT22;34933;40.968;14.538;2023-07-28T15:28:36;40.90;74.20
48768;DHT22;34933;40.968;14.538;2023-07-28T15:31:21;40.50;74.40
48768;DHT22;34933;40.968;14.538;2023-07-28T15:34:05;40.60;74.90
48768;DHT22;34933;40.968;14.538;2023-07-28T15:36:49;40.90;74.70
48768;DHT22;34933;40.968;14.538;2023-07-28T15:39:34;40.70;75.00
48768;DHT22;34933;40.968;14.538;2023-07-28T15:42:18;40.90;74.20
48768;DHT22;34933;40.968;14.538;2023-07-28T15:45:04;41.60;74.80
48768;DHT22;34933;40.968;14.538;2023-07-28T15:47:48;41.70;73.70
48768;DHT22;34933;40.968;14.538;2023-07-28T15:50:32;40.80;74.50
48768;DHT22;34933;40.968;14.538;2023-07-28T15:53:17;40.60;74.60
48768;DHT22;34933;40.968;14.538;2023-07-28T15:56:02;40.30;74.40
48768;DHT22;34933;40.968;14.538;2023-07-28T15:58:46;39.70;75.40
48768;DHT22;34933;40.968;14.538;2023-07-28T16:01:30;40.20;75.20
48768;DHT22;34933;40.968;14.538;2023-07-28T16:04:15;41.20;74.40
48768;DHT22;34933;40.968;14.538;2023-07-28T16:06:59;41.40;74.10
48768;DHT22;34933;40.968;14.538;2023-07-28T16:09:44;40.70;74.20
48768;DHT22;34933;40.968;14.538;2023-07-28T16:12:28;40.30;73.90
48768;DHT22;34933;40.968;14.538;2023-07-28T16:15:12;40.20;75.20
48768;DHT22;34933;40.968;14.538;2023-07-28T16:17:57;39.70;73.50
48768;DHT22;34933;40.968;14.538;2023-07-28T16:20:41;39.40;73.20
48768;DHT22;34933;40.968;14.538;2023-07-28T16:23:25;38.50;75.70
48768;DHT22;34933;40.968;14.538;2023-07-28T16:26:10;38.40;75.50
48768;DHT22;34933;40.968;14.538;2023-07-28T16:28:54;38.70;76.90
48768;DHT22;34933;40.968;14.538;2023-07-28T16:31:38;38.80;76.00
48768;DHT22;34933;40.968;14.538;2023-07-28T16:34:23;39.00;75.90
48768;DHT22;34933;40.968;14.538;2023-07-28T16:37:07;38.90;77.10
48768;DHT22;34933;40.968;14.538;2023-07-28T16:39:52;38.50;76.00
48768;DHT22;34933;40.968;14.538;2023-07-28T16:42:38;38.30;76.10
48768;DHT22;34933;40.968;14.538;2023-07-28T16:45:23;37.40;76.50
48768;DHT22;34933;40.968;14.538;2023-07-28T16:48:07;37.10;77.30
48768;DHT22;34933;40.968;14.538;2023-07-28T16:50:53;37.00;77.90
48768;DHT22;34933;40.968;14.538;2023-07-28T16:53:38;37.40;77.20
48768;DHT22;34933;40.968;14.538;2023-07-28T16:56:22;37.40;76.50
48768;DHT22;34933;40.968;14.538;2023-07-28T16:59:09;37.20;77.50
48768;DHT22;34933;40.968;14.538;2023-07-28T17:01:54;36.60;78.00
48768;DHT22;34933;40.968;14.538;2023-07-28T17:04:38;36.40;77.90
48768;DHT22;34933;40.968;14.538;2023-07-28T17:07:22;36.10;79.00
48768;DHT22;34933;40.968;14.538;2023-07-28T17:10:07;36.80;79.00
48768;DHT22;34933;40.968;14.538;2023-07-28T17:12:52;36.60;78.30